Time;durP1;ratioP1;P1;durP2;ratioP2;P2;SDS_P1;SDS_P2;PMS_P1;PMS_P2;Temp;Humidity;BMP_temperature;BMP_pressure;BME280_temperature;BME280_humidity;BME280_pressure;Samples;Min_cycle;Max_cycle;Signal;HPM_P1;HPM_P2
2023/09/19 00:01:32;;;;;;;12.32;3.90;;;23.50;71.20;;;;;;5061785;28;20029;-56
2023/09/19 00:03:58;;;;;;;10.87;3.50;;;23.50;71.30;;;;;;5063580;28;20047;-56
2023/09/19 00:06:26;;;;;;;10.05;3.78;;;23.50;71.10;;;;;;5060656;28;20028;-49
2023/09/19 00:08:52;;;;;;;11.30;4.05;;;23.50;71.20;;;;;;5058465;28;20013;-56
2023/09/19 00:11:18;;;;;;;7.57;3.63;;;23.50;71.30;;;;;;5062212;28;20024;-53
2023/09/19 00:13:44;;;;;;;10.20;4.45;;;23.60;71.30;;;;;;5064442;28;20025;-51
2023/09/19 00:16:11;;;;;;;11.30;4.28;;;23.50;71.70;;;;;;5064348;28;20025;-54
2023/09/19 00:18:38;;;;;;;11.00;4.20;;;23.60;71.70;;;;;;5061875;28;20028;-50
2023/09/19 00:21:07;;;;;;;8.93;3.80;;;23.60;71.80;;;;;;5058564;28;20451;-53
2023/09/19 00:23:33;;;;;;;9.32;3.65;;;23.60;71.60;;;;;;5059736;28;20032;-55
2023/09/19 00:26:00;;;;;;;13.20;3.92;;;23.60;71.60;;;;;;5061516;28;20021;-49
2023/09/19 00:28:27;;;;;;;9.43;3.60;;;23.60;71.50;;;;;;5065861;28;20048;-51
2023/09/19 00:30:55;;;;;;;7.95;3.30;;;23.60;71.50;;;;;;5056964;28;20028;-52
2023/09/19 00:33:22;;;;;;;9.68;3.63;;;23.60;71.40;;;;;;5061836;28;20407;-49
2023/09/19 00:35:54;;;;;;;7.30;3.53;;;23.60;71.40;;;;;;5061126;28;20541;-50
2023/09/19 00:38:22;;;;;;;8.93;3.53;;;23.60;71.30;;;;;;5060370;28;20447;-54
2023/09/19 00:40:52;;;;;;;9.38;3.22;;;23.60;71.20;;;;;;5059816;28;20501;-50
2023/09/19 00:43:18;;;;;;;7.05;3.35;;;23.60;71.30;;;;;;5060044;28;20101;-51
2023/09/19 00:45:48;;;;;;;8.48;3.60;;;23.60;71.30;;;;;;5063823;28;20023;-56
2023/09/19 00:48:14;;;;;;;;;;;23.60;71.20;;;;;;5066793;28;20024;-51
2023/09/19 00:50:45;;;;;;;14.85;3.25;;;23.60;71.10;;;;;;5062895;28;20271;-53
2023/09/19 00:53:15;;;;;;;5.85;3.25;;;23.60;70.90;;;;;;5059780;28;20048;-50
2023/09/19 00:55:42;;;;;;;7.03;2.85;;;23.60;71.00;;;;;;5065011;28;20103;-58
2023/09/19 00:58:10;;;;;;;10.10;3.38;;;23.70;70.90;;;;;;5071387;28;20097;-56
2023/09/19 01:00:36;;;;;;;10.43;3.20;;;23.60;70.80;;;;;;5064656;28;20452;-58
2023/09/19 01:03:03;;;;;;;8.55;3.30;;;23.60;70.80;;;;;;5068563;28;20479;-58
2023/09/19 01:05:31;;;;;;;7.97;3.40;;;23.60;70.80;;;;;;5066620;28;20027;-57
2023/09/19 01:07:57;;;;;;;8.93;3.40;;;23.60;71.40;;;;;;5071274;28;20025;-58
2023/09/19 01:10:24;;;;;;;6.88;3.08;;;23.60;70.80;;;;;;5071033;28;20027;-58
2023/09/19 01:13:21;;;;;;;11.27;3.60;;;23.60;70.40;;;;;;5068183;28;20074;-58
2023/09/19 01:16:11;;;;;;;6.15;2.78;;;23.60;70.50;;;;;;5071193;28;20365;-58
2023/09/19 01:19:02;;;;;;;9.82;3.58;;;23.60;70.40;;;;;;5064577;28;20020;-58
2023/09/19 01:22:10;;;;;;;8.23;2.97;;;23.60;70.50;;;;;;5064903;28;20021;-58
2023/09/19 01:25:03;;;;;;;6.53;3.30;;;23.60;70.40;;;;;;5042988;28;20036;-58
2023/09/19 01:28:04;;;;;;;10.15;3.20;;;23.60;70.40;;;;;;5070863;28;20027;-58
2023/09/19 01:30:36;;;;;;;7.60;3.00;;;23.50;70.50;;;;;;5064728;28;20068;-58
2023/09/19 01:33:04;;;;;;;7.95;3.17;;;23.50;70.30;;;;;;5065999;28;20096;-58
2023/09/19 01:35:30;;;;;;;8.73;3.20;;;23.50;70.40;;;;;;5063258;28;20056;-57
2023/09/19 01:37:55;;;;;;;5.10;2.92;;;23.50;70.40;;;;;;5070275;28;20032;-58
2023/09/19 01:40:22;;;;;;;8.23;3.25;;;23.50;70.50;;;;;;5070430;28;20021;-57
2023/09/19 01:43:16;;;;;;;10.55;3.38;;;23.50;70.50;;;;;;5062940;28;20059;-58
2023/09/19 01:46:08;;;;;;;8.15;3.10;;;23.50;71.10;;;;;;5067340;28;20377;-52
2023/09/19 01:49:12;;;;;;;7.95;3.13;;;23.50;70.50;;;;;;5068885;28;20020;-55
2023/09/19 01:51:59;;;;;;;10.10;3.28;;;23.50;70.30;;;;;;5065496;28;20039;-55
2023/09/19 01:54:37;;;;;;;8.00;3.30;;;23.50;70.40;;;;;;5069116;28;20032;-55
2023/09/19 01:57:15;;;;;;;11.63;4.20;;;23.50;70.40;;;;;;5063659;28;20017;-54
2023/09/19 01:59:54;;;;;;;6.35;2.70;;;23.50;70.40;;;;;;5063111;28;20111;-55
2023/09/19 02:02:22;;;;;;;7.53;3.33;;;23.50;70.50;;;;;;5060069;28;20040;-55
2023/09/19 02:04:50;;;;;;;7.93;3.42;;;23.50;70.30;;;;;;5070906;28;20028;-51
2023/09/19 02:07:17;;;;;;;7.80;2.85;;;23.50;70.50;;;;;;5069322;28;20025;-54
2023/09/19 02:09:42;;;;;;;6.32;3.20;;;23.50;70.50;;;;;;5071239;28;20484;-53
2023/09/19 02:12:11;;;;;;;5.03;3.17;;;23.50;70.40;;;;;;5065437;28;20028;-53
2023/09/19 02:14:37;;;;;;;7.33;3.47;;;23.50;70.30;;;;;;5068468;28;20048;-55
2023/09/19 02:17:07;;;;;;;7.75;3.55;;;23.50;70.40;;;;;;5088872;23;20078;-52
2023/09/19 02:19:33;;;;;;;7.30;3.10;;;23.50;70.40;;;;;;5061707;28;20024;-52
2023/09/19 02:22:03;;;;;;;5.43;2.70;;;23.50;70.40;;;;;;5068998;28;20020;-52
2023/09/19 02:24:29;;;;;;;5.93;3.20;;;23.50;70.50;;;;;;5068874;28;20116;-49
2023/09/19 02:26:56;;;;;;;5.60;3.00;;;23.50;70.30;;;;;;5069988;28;20029;-48
2023/09/19 02:29:22;;;;;;;7.82;3.50;;;23.50;70.20;;;;;;5062495;28;20101;-48
2023/09/19 02:31:48;;;;;;;7.18;3.17;;;23.50;70.30;;;;;;5065644;28;20383;-50
2023/09/19 02:34:16;;;;;;;5.75;3.20;;;23.50;70.30;;;;;;5060718;28;20024;-50
2023/09/19 02:36:44;;;;;;;7.72;3.15;;;23.50;70.30;;;;;;5070329;28;20028;-48
2023/09/19 02:39:11;;;;;;;7.03;3.20;;;23.50;70.40;;;;;;5069693;28;20040;-52
2023/09/19 02:41:37;;;;;;;6.55;3.30;;;23.50;70.20;;;;;;5066274;28;20028;-50
2023/09/19 02:44:07;;;;;;;9.23;3.38;;;23.50;70.30;;;;;;5058765;28;20101;-51
2023/09/19 02:46:36;;;;;;;6.20;2.92;;;23.50;70.40;;;;;;5057082;28;20025;-51
2023/09/19 02:49:06;;;;;;;5.45;3.00;;;23.50;70.40;;;;;;5069498;28;20029;-48
2023/09/19 02:51:33;;;;;;;;;;;23.50;70.30;;;;;;5069415;28;20020;-52
2023/09/19 02:53:59;;;;;;;6.85;3.15;;;23.50;70.30;;;;;;5062790;28;19920;-49
2023/09/19 02:56:26;;;;;;;11.57;3.33;;;23.50;70.20;;;;;;5067924;28;20036;-53
2023/09/19 02:58:53;;;;;;;5.85;3.10;;;23.50;70.20;;;;;;5066239;28;20403;-50
2023/09/19 03:01:19;;;;;;;7.97;3.67;;;23.50;70.20;;;;;;5068966;28;20036;-49
2023/09/19 03:03:45;;;;;;;6.43;3.47;;;23.50;70.10;;;;;;5063407;28;20102;-50
2023/09/19 03:06:12;;;;;;;6.15;3.40;;;23.50;70.10;;;;;;5058353;28;20032;-49
2023/09/19 03:08:39;;;;;;;7.85;3.60;;;23.50;70.50;;;;;;5073439;28;20028;-54
2023/09/19 03:11:07;;;;;;;8.48;3.25;;;23.50;70.10;;;;;;5073668;28;20020;-55
2023/09/19 03:13:54;;;;;;;10.38;3.90;;;23.50;70.40;;;;;;5067064;28;20025;-55
2023/09/19 03:16:21;;;;;;;5.88;3.50;;;23.50;70.00;;;;;;5063947;28;20497;-55
2023/09/19 03:18:50;;;;;;;11.05;3.58;;;23.50;70.20;;;;;;5072759;28;20484;-55
2023/09/19 03:21:17;;;;;;;6.72;3.60;;;23.50;70.10;;;;;;5067445;28;20106;-55
2023/09/19 03:24:13;;;;;;;8.52;3.55;;;23.50;70.30;;;;;;5072392;28;20399;-52
2023/09/19 03:26:40;;;;;;;7.97;3.40;;;23.50;70.10;;;;;;5062424;28;20016;-52
2023/09/19 03:29:06;;;;;;;8.73;3.75;;;23.50;70.10;;;;;;5069377;28;20523;-54
2023/09/19 03:31:33;;;;;;;10.00;3.70;;;23.50;70.00;;;;;;5067900;28;20028;-51
2023/09/19 03:33:59;;;;;;;10.13;3.70;;;23.50;69.90;;;;;;5063717;28;20479;-55
2023/09/19 03:36:27;;;;;;;7.53;3.63;;;23.50;70.10;;;;;;5070399;28;20104;-54
2023/09/19 03:38:54;;;;;;;9.83;4.27;;;23.50;70.30;;;;;;5068714;28;20036;-53
2023/09/19 03:41:20;;;;;;;15.05;3.83;;;23.50;70.20;;;;;;5071662;28;20028;-55
2023/09/19 03:43:46;;;;;;;9.52;4.00;;;23.50;70.00;;;;;;5065698;28;20112;-51
2023/09/19 03:46:14;;;;;;;9.93;3.70;;;23.50;69.90;;;;;;5071822;28;20441;-50
2023/09/19 03:48:42;;;;;;;7.63;4.00;;;23.50;70.00;;;;;;5061915;28;20131;-50
2023/09/19 03:51:09;;;;;;;11.80;3.90;;;23.50;70.00;;;;;;5067203;28;20400;-53
2023/09/19 03:53:35;;;;;;;11.35;4.28;;;23.50;70.00;;;;;;5071929;28;20020;-47
2023/09/19 03:56:01;;;;;;;6.50;3.72;;;23.50;70.00;;;;;;5066215;28;20024;-49
2023/09/19 03:58:30;;;;;;;8.80;3.80;;;23.50;70.00;;;;;;5069746;28;20123;-49
2023/09/19 04:00:56;;;;;;;10.85;4.53;;;23.50;70.00;;;;;;5070709;28;20063;-54
2023/09/19 04:03:22;;;;;;;6.47;3.70;;;23.50;70.00;;;;;;5065334;28;20087;-54
2023/09/19 04:05:48;;;;;;;6.85;3.25;;;23.50;70.00;;;;;;5071891;28;20028;-51
2023/09/19 04:08:14;;;;;;;9.25;3.53;;;23.50;70.00;;;;;;5069295;28;20025;-49
2023/09/19 04:10:43;;;;;;;7.72;4.22;;;23.50;70.20;;;;;;5067116;28;20044;-51
2023/09/19 04:13:10;;;;;;;7.20;4.00;;;23.50;70.00;;;;;;5050788;28;20067;-50
2023/09/19 04:15:37;;;;;;;9.65;3.53;;;23.50;69.90;;;;;;5070033;28;20471;-47
2023/09/19 04:18:03;;;;;;;9.05;3.80;;;23.50;70.00;;;;;;5065970;28;20052;-52
2023/09/19 04:20:29;;;;;;;6.15;3.85;;;23.50;70.10;;;;;;5063800;28;20126;-51
2023/09/19 04:22:56;;;;;;;7.70;3.80;;;23.50;69.90;;;;;;5065515;28;20052;-50
2023/09/19 04:25:21;;;;;;;9.40;4.25;;;23.40;69.90;;;;;;5051348;28;20029;-51
2023/09/19 04:27:47;;;;;;;6.22;3.75;;;23.50;70.00;;;;;;5072360;28;20475;-52
2023/09/19 04:30:14;;;;;;;8.05;3.75;;;23.40;69.80;;;;;;5068959;28;20074;-54
2023/09/19 04:32:41;;;;;;;9.05;4.03;;;23.40;69.70;;;;;;5066032;28;20504;-52
2023/09/19 04:35:08;;;;;;;6.20;3.70;;;23.40;69.70;;;;;;5063343;28;20044;-48
2023/09/19 04:37:43;;;;;;;8.13;4.13;;;23.50;69.90;;;;;;5063087;28;20036;-51
2023/09/19 04:40:14;;;;;;;10.65;4.18;;;23.50;69.90;;;;;;5067832;28;20028;-50
2023/09/19 04:42:41;;;;;;;6.38;3.35;;;23.40;69.70;;;;;;5061801;28;20036;-49
2023/09/19 04:45:09;;;;;;;8.10;3.38;;;23.50;69.80;;;;;;5071282;28;20035;-55
2023/09/19 04:47:38;;;;;;;8.25;4.05;;;23.40;69.60;;;;;;5070368;28;20050;-55
2023/09/19 04:50:05;;;;;;;7.38;3.95;;;23.40;69.60;;;;;;5069497;28;20028;-55
2023/09/19 04:52:31;;;;;;;9.55;3.83;;;23.40;69.70;;;;;;5068477;28;20012;-52
2023/09/19 04:54:57;;;;;;;8.90;3.80;;;23.40;69.60;;;;;;5071804;28;20039;-55
2023/09/19 04:57:23;;;;;;;8.93;3.72;;;23.50;69.60;;;;;;5066785;28;20411;-55
2023/09/19 04:59:50;;;;;;;7.63;3.97;;;23.40;69.60;;;;;;5071109;28;20113;-55
2023/09/19 05:02:15;;;;;;;7.75;3.70;;;23.40;69.50;;;;;;5065989;28;20377;-54
2023/09/19 05:04:41;;;;;;;9.35;3.97;;;23.40;69.40;;;;;;5057898;28;20025;-55
2023/09/19 05:07:07;;;;;;;7.03;3.80;;;23.40;69.50;;;;;;5068627;28;20031;-52
2023/09/19 05:09:34;;;;;;;7.78;3.83;;;23.40;69.50;;;;;;5067630;28;20021;-53
2023/09/19 05:12:00;;;;;;;7.03;4.10;;;23.40;69.60;;;;;;5067075;28;20032;-55
2023/09/19 05:14:26;;;;;;;10.40;3.83;;;23.40;69.70;;;;;;5070154;28;20468;-55
2023/09/19 05:16:52;;;;;;;5.65;3.33;;;23.40;69.40;;;;;;5065891;28;20035;-52
2023/09/19 05:19:18;;;;;;;6.25;3.67;;;23.40;69.50;;;;;;5068774;28;20033;-55
2023/09/19 05:21:43;;;;;;;5.55;3.67;;;23.40;69.30;;;;;;5070919;28;20032;-55
2023/09/19 05:24:11;;;;;;;8.88;3.67;;;23.40;69.40;;;;;;5065954;28;20419;-48
2023/09/19 05:26:36;;;;;;;9.82;3.75;;;23.40;69.60;;;;;;5068823;28;20479;-49
2023/09/19 05:29:03;;;;;;;9.98;3.58;;;23.40;69.40;;;;;;5074602;28;20023;-49
2023/09/19 05:31:29;;;;;;;9.57;3.60;;;23.40;69.70;;;;;;5052971;28;20040;-55
2023/09/19 05:33:55;;;;;;;5.95;3.30;;;23.40;69.70;;;;;;5058782;28;20395;-56
2023/09/19 05:36:20;;;;;;;7.70;3.40;;;23.40;69.40;;;;;;5053004;28;20396;-54
2023/09/19 05:38:49;;;;;;;6.85;3.90;;;23.40;69.40;;;;;;5051695;28;20017;-55
2023/09/19 05:41:15;;;;;;;6.95;3.80;;;23.40;69.30;;;;;;5056635;28;20111;-55
2023/09/19 05:43:41;;;;;;;7.72;3.50;;;23.40;69.40;;;;;;5059093;28;20514;-56
2023/09/19 05:46:08;;;;;;;6.35;3.58;;;23.40;69.40;;;;;;5066460;28;20065;-55
2023/09/19 05:48:34;;;;;;;8.18;4.18;;;23.40;69.30;;;;;;5068190;28;20032;-55
2023/09/19 05:51:00;;;;;;;12.90;3.78;;;23.40;69.40;;;;;;5060305;28;20079;-54
2023/09/19 05:53:27;;;;;;;7.90;4.22;;;23.50;70.20;;;;;;5066506;28;20021;-54
2023/09/19 05:55:53;;;;;;;6.00;3.33;;;23.50;69.60;;;;;;5069036;28;20024;-55
2023/09/19 05:58:19;;;;;;;8.98;4.07;;;23.50;69.40;;;;;;5068952;28;20567;-55
2023/09/19 06:00:48;;;;;;;10.60;4.05;;;23.50;69.30;;;;;;5070081;28;20123;-55
2023/09/19 06:03:14;;;;;;;9.10;3.67;;;23.50;69.30;;;;;;5070939;28;20034;-55
2023/09/19 06:05:40;;;;;;;14.75;4.85;;;23.40;69.20;;;;;;5070194;28;20404;-55
2023/09/19 06:08:07;;;;;;;12.05;4.75;;;23.50;69.90;;;;;;5071249;28;20041;-55
2023/09/19 06:10:34;;;;;;;24.65;5.35;;;23.40;71.60;;;;;;5060241;28;20535;-57
2023/09/19 06:13:04;;;;;;;19.42;4.70;;;23.50;72.10;;;;;;5050608;28;20130;-57
2023/09/19 06:15:32;;;;;;;34.15;4.78;;;23.50;72.60;;;;;;5050337;28;20040;-57
2023/09/19 06:17:59;;;;;;;26.88;4.45;;;23.40;72.60;;;;;;5064826;28;20105;-58
2023/09/19 06:20:26;;;;;;;24.60;4.65;;;23.40;72.30;;;;;;5062303;28;20036;-57
2023/09/19 06:22:53;;;;;;;13.73;4.32;;;23.40;71.60;;;;;;5056381;28;20028;-58
2023/09/19 06:25:19;;;;;;;14.80;3.92;;;23.40;71.10;;;;;;5050862;28;20385;-60
2023/09/19 06:27:47;;;;;;;13.70;3.72;;;23.40;71.80;;;;;;5050911;28;20021;-57
2023/09/19 06:30:17;;;;;;;8.55;3.15;;;23.40;71.70;;;;;;5056796;28;20095;-57
2023/09/19 06:32:43;;;;;;;;;;;23.40;70.40;;;;;;5065241;28;20492;-57
2023/09/19 06:35:11;;;;;;;14.85;3.50;;;23.50;69.70;;;;;;5070660;28;19916;-57
2023/09/19 06:37:40;;;;;;;19.73;4.65;;;23.50;70.20;;;;;;5061295;28;20113;-56
2023/09/19 06:40:16;;;;;;;10.13;3.95;;;23.40;71.40;;;;;;5064397;28;20112;-56
2023/09/19 06:42:47;;;;;;;12.50;3.90;;;23.50;70.50;;;;;;5066469;28;20024;-55
2023/09/19 06:45:17;;;;;;;15.52;3.83;;;23.50;71.30;;;;;;5071455;28;20036;-56
2023/09/19 06:47:50;;;;;;;15.10;4.25;;;23.40;69.00;;;;;;5074384;28;20050;-56
2023/09/19 06:50:19;;;;;;;15.10;4.00;;;23.50;69.60;;;;;;5067725;28;20035;-53
2023/09/19 06:52:47;;;;;;;11.02;3.67;;;23.50;69.60;;;;;;5069851;28;20024;-56
2023/09/19 06:55:16;;;;;;;13.85;2.88;;;23.50;68.20;;;;;;5069588;28;20052;-55
2023/09/19 06:57:45;;;;;;;10.43;2.65;;;23.40;66.30;;;;;;5073197;28;20033;-52
2023/09/19 07:00:18;;;;;;;11.77;2.58;;;23.30;65.60;;;;;;5069180;28;20083;-56
2023/09/19 07:02:45;;;;;;;6.32;2.38;;;23.30;65.90;;;;;;5071387;28;20032;-55
2023/09/19 07:05:11;;;;;;;9.02;2.55;;;23.20;63.70;;;;;;5072930;28;20056;-53
2023/09/19 07:07:37;;;;;;;5.43;2.20;;;23.00;63.10;;;;;;5074243;28;20056;-52
2023/09/19 07:10:07;;;;;;;8.10;2.35;;;23.00;62.70;;;;;;5074300;28;20033;-55
2023/09/19 07:12:33;;;;;;;9.48;2.22;;;22.90;62.40;;;;;;5073521;28;20055;-56
2023/09/19 07:14:59;;;;;;;7.45;2.03;;;22.90;63.40;;;;;;5069927;28;20059;-54
2023/09/19 07:17:25;;;;;;;10.63;2.25;;;23.00;62.90;;;;;;5073881;28;20033;-54
2023/09/19 07:19:51;;;;;;;6.57;2.00;;;23.00;63.00;;;;;;5074176;28;20031;-54
2023/09/19 07:22:17;;;;;;;7.88;2.17;;;22.60;63.50;;;;;;5074005;28;20028;-53
2023/09/19 07:24:43;;;;;;;5.47;2.00;;;22.70;62.80;;;;;;5065958;28;20075;-52
2023/09/19 07:27:09;;;;;;;6.07;2.25;;;22.80;62.40;;;;;;5073791;28;20544;-55
2023/09/19 07:29:34;;;;;;;9.35;2.47;;;22.50;60.00;;;;;;5073773;28;20060;-54
2023/09/19 07:32:00;;;;;;;9.60;2.38;;;22.30;62.80;;;;;;5072997;28;20045;-54
2023/09/19 07:34:26;;;;;;;9.90;2.30;;;22.50;62.30;;;;;;5071803;28;20484;-53
2023/09/19 07:36:52;;;;;;;6.93;1.92;;;22.60;62.00;;;;;;5073018;28;20422;-55
2023/09/19 07:39:17;;;;;;;5.90;2.10;;;22.70;62.30;;;;;;5073747;28;20033;-52
2023/09/19 07:41:43;;;;;;;7.53;2.38;;;22.80;62.00;;;;;;5073761;28;20396;-55
2023/09/19 07:44:12;;;;;;;5.03;1.88;;;22.90;61.80;;;;;;5073300;28;20484;-55
2023/09/19 07:46:38;;;;;;;7.47;2.50;;;22.90;61.70;;;;;;5071224;28;20147;-56
2023/09/19 07:49:05;;;;;;;4.95;1.95;;;23.00;61.50;;;;;;5073446;28;20060;-53
2023/09/19 07:51:31;;;;;;;8.05;2.05;;;23.00;61.30;;;;;;5073818;28;20446;-55
2023/09/19 07:53:57;;;;;;;6.70;2.25;;;23.00;61.20;;;;;;5071761;28;20028;-55
2023/09/19 07:56:23;;;;;;;6.13;2.00;;;23.10;61.20;;;;;;5064997;28;20380;-55
2023/09/19 07:58:49;;;;;;;7.20;2.30;;;23.00;60.90;;;;;;5073215;28;20021;-55
2023/09/19 08:01:16;;;;;;;14.23;2.88;;;23.10;60.80;;;;;;5073309;28;20036;-56
2023/09/19 08:03:43;;;;;;;9.68;3.10;;;23.00;58.80;;;;;;5071916;28;20025;-57
2023/09/19 08:06:09;;;;;;;12.00;2.78;;;22.70;60.00;;;;;;5054650;28;20078;-55
2023/09/19 08:08:39;;;;;;;9.48;2.60;;;22.80;59.60;;;;;;5061622;28;20036;-55
2023/09/19 08:11:12;;;;;;;11.35;2.65;;;22.70;57.70;;;;;;5065209;28;20108;-54
2023/09/19 08:13:43;;;;;;;6.63;2.42;;;22.20;58.60;;;;;;5062740;28;20446;-53
2023/09/19 08:16:14;;;;;;;7.20;2.70;;;22.20;58.40;;;;;;5062514;28;20035;-50
2023/09/19 08:18:41;;;;;;;7.70;3.17;;;22.20;59.50;;;;;;5065113;28;20033;-57
2023/09/19 08:21:10;;;;;;;10.63;3.00;;;22.30;58.60;;;;;;5053780;22;20046;-53
2023/09/19 08:23:39;;;;;;;12.25;2.65;;;22.10;59.90;;;;;;5025908;28;20029;-56
2023/09/19 08:26:08;;;;;;;11.17;2.47;;;22.30;59.40;;;;;;5030010;28;20029;-56
2023/09/19 08:28:35;;;;;;;12.55;3.00;;;22.50;59.80;;;;;;5030731;28;20504;-53
2023/09/19 08:31:07;;;;;;;13.77;2.72;;;22.80;60.10;;;;;;5021014;28;20034;-52
2023/09/19 08:33:34;;;;;;;12.80;2.70;;;22.90;60.00;;;;;;5009599;28;20101;-55
2023/09/19 08:36:00;;;;;;;16.23;2.58;;;23.10;60.30;;;;;;5010548;28;20022;-55
2023/09/19 08:38:30;;;;;;;12.82;2.60;;;23.10;59.90;;;;;;5019043;28;20029;-52
2023/09/19 08:41:02;;;;;;;;;;;23.20;60.90;;;;;;5013682;28;20022;-56
2023/09/19 08:43:28;;;;;;;13.00;2.10;;;23.30;60.40;;;;;;5010804;28;19913;-56
2023/09/19 08:46:03;;;;;;;6.85;2.25;;;23.30;60.30;;;;;;5009671;28;20661;-52
2023/09/19 08:48:31;;;;;;;17.60;3.00;;;23.30;60.70;;;;;;5011216;28;20029;-53
2023/09/19 08:51:03;;;;;;;7.05;2.30;;;23.40;60.90;;;;;;5011771;28;20448;-56
2023/09/19 08:53:59;;;;;;;7.75;2.22;;;23.40;60.70;;;;;;5011004;28;20037;-51
2023/09/19 08:56:27;;;;;;;8.60;2.40;;;23.40;61.20;;;;;;4981888;28;20030;-55
2023/09/19 08:59:02;;;;;;;11.85;2.53;;;23.40;61.60;;;;;;4997807;28;20022;-52
2023/09/19 09:01:29;;;;;;;14.35;2.50;;;23.40;61.60;;;;;;4998651;28;20033;-54
2023/09/19 09:03:56;;;;;;;9.10;2.47;;;23.40;60.90;;;;;;5016066;28;20396;-55
2023/09/19 09:06:23;;;;;;;6.47;2.22;;;23.40;61.20;;;;;;5024995;28;20021;-53
2023/09/19 09:08:52;;;;;;;10.45;3.03;;;23.40;61.30;;;;;;5017189;28;20057;-56
2023/09/19 09:11:19;;;;;;;13.85;2.55;;;23.40;61.70;;;;;;5009412;28;20109;-55
2023/09/19 09:13:45;;;;;;;7.93;2.20;;;23.40;61.50;;;;;;5025185;28;20017;-55
2023/09/19 09:16:13;;;;;;;9.10;2.28;;;23.50;61.70;;;;;;4989902;28;20066;-55
2023/09/19 09:18:39;;;;;;;9.38;3.00;;;23.50;61.50;;;;;;5011547;28;20066;-52
2023/09/19 09:21:05;;;;;;;7.28;2.15;;;23.50;61.30;;;;;;5017277;28;20043;-53
2023/09/19 09:23:34;;;;;;;8.52;2.20;;;23.50;61.60;;;;;;5013373;28;20121;-54
2023/09/19 09:26:05;;;;;;;8.02;2.50;;;23.50;61.50;;;;;;5009302;28;20072;-52
2023/09/19 09:28:33;;;;;;;5.97;2.15;;;23.50;61.50;;;;;;5009946;28;20030;-51
2023/09/19 09:31:02;;;;;;;9.18;2.20;;;23.50;61.20;;;;;;5020702;28;20384;-52
2023/09/19 09:33:28;;;;;;;9.60;2.50;;;23.50;61.20;;;;;;5020534;28;20056;-50
2023/09/19 09:36:06;;;;;;;10.32;2.50;;;23.60;61.20;;;;;;5028607;28;20028;-57
2023/09/19 09:38:55;;;;;;;9.32;2.40;;;23.50;60.90;;;;;;5029038;28;20104;-55
2023/09/19 09:41:37;;;;;;;6.90;2.47;;;23.50;61.00;;;;;;5015716;28;20119;-54
2023/09/19 09:44:17;;;;;;;10.98;2.80;;;23.60;60.80;;;;;;5021017;28;20400;-53
2023/09/19 09:49:33;;;;;;;12.80;2.92;;;23.60;60.10;;;;;;5009221;28;20030;-52
2023/09/19 09:52:00;;;;;;;8.10;2.85;;;23.60;60.70;;;;;;5009861;28;20084;-55
2023/09/19 09:54:39;;;;;;;8.77;2.55;;;23.70;60.90;;;;;;5017185;28;20416;-51
2023/09/19 09:57:27;;;;;;;9.45;2.55;;;23.60;61.30;;;;;;5008727;28;20037;-53
2023/09/19 10:02:42;;;;;;;9.88;2.95;;;23.70;61.60;;;;;;5014141;28;20026;-57
2023/09/19 10:05:28;;;;;;;11.15;2.80;;;23.70;61.60;;;;;;5019574;28;20030;-53
2023/09/19 10:08:08;;;;;;;6.30;2.40;;;23.70;61.80;;;;;;5007829;28;20026;-54
2023/09/19 10:13:15;;;;;;;7.40;2.60;;;23.70;62.30;;;;;;5009983;28;20022;-55
2023/09/19 10:15:51;;;;;;;8.02;3.22;;;23.70;62.30;;;;;;5000616;28;20032;-51
2023/09/19 10:18:20;;;;;;;7.35;2.70;;;23.80;62.70;;;;;;5011140;28;20057;-54
2023/09/19 10:20:49;;;;;;;;;;;23.80;62.80;;;;;;5011322;28;20048;-54
2023/09/19 10:23:22;;;;;;;5.20;2.40;;;23.80;63.20;;;;;;5011528;28;19910;-53
2023/09/19 10:25:49;;;;;;;5.85;2.38;;;23.80;63.10;;;;;;5014674;28;20029;-56
2023/09/19 10:28:21;;;;;;;6.05;2.40;;;23.80;63.00;;;;;;5029610;28;20587;-52
2023/09/19 10:30:51;;;;;;;6.88;2.25;;;23.80;63.10;;;;;;5014999;28;20453;-54
2023/09/19 10:33:29;;;;;;;10.20;2.42;;;23.80;63.20;;;;;;5011984;28;20021;-52
2023/09/19 10:35:59;;;;;;;9.30;2.58;;;23.80;63.20;;;;;;5014895;28;20026;-52
2023/09/19 10:38:28;;;;;;;7.47;2.60;;;23.80;63.00;;;;;;5016979;28;20026;-53
2023/09/19 10:40:59;;;;;;;5.93;2.75;;;23.90;63.00;;;;;;5012324;28;20034;-49
2023/09/19 10:43:38;;;;;;;10.15;2.75;;;23.80;62.80;;;;;;5011213;28;20509;-51
2023/09/19 10:46:10;;;;;;;12.18;3.05;;;23.90;62.90;;;;;;5013939;28;20034;-54
2023/09/19 10:48:38;;;;;;;6.20;2.88;;;23.90;63.00;;;;;;5021048;28;20476;-51
2023/09/19 10:51:14;;;;;;;31.02;4.43;;;23.90;63.00;;;;;;5011786;28;20041;-56
2023/09/19 10:53:46;;;;;;;7.47;3.00;;;23.90;62.90;;;;;;5006808;28;20022;-53
2023/09/19 10:56:41;;;;;;;7.07;2.85;;;23.90;62.90;;;;;;5013610;28;20436;-52
2023/09/19 10:59:18;;;;;;;7.63;3.10;;;23.90;63.00;;;;;;5014665;28;20041;-53
2023/09/19 11:01:47;;;;;;;4.88;2.60;;;23.90;63.10;;;;;;5001690;28;20169;-52
2023/09/19 11:04:33;;;;;;;7.30;3.22;;;23.90;63.00;;;;;;5020385;28;20033;-55
2023/09/19 11:07:11;;;;;;;6.93;3.20;;;23.90;63.60;;;;;;5023747;28;20029;-53
2023/09/19 11:09:48;;;;;;;8.02;2.90;;;23.90;63.10;;;;;;5012319;28;20550;-52
2023/09/19 11:12:30;;;;;;;6.38;3.00;;;23.90;63.10;;;;;;5006317;28;20030;-56
2023/09/19 11:14:57;;;;;;;9.77;3.03;;;23.90;63.30;;;;;;5020029;28;20018;-56
2023/09/19 11:17:31;;;;;;;9.35;2.90;;;23.90;63.30;;;;;;5012187;28;20068;-54
2023/09/19 11:22:51;;;;;;;8.43;3.13;;;23.90;63.30;;;;;;5010878;28;20044;-50
2023/09/19 11:25:31;;;;;;;6.45;2.97;;;23.90;63.40;;;;;;5017220;28;20501;-55
2023/09/19 11:28:12;;;;;;;6.10;2.72;;;23.90;63.40;;;;;;5025356;28;20034;-55
2023/09/19 11:30:40;;;;;;;7.90;2.80;;;23.90;64.20;;;;;;5028752;28;20032;-53
2023/09/19 11:33:33;;;;;;;8.55;2.95;;;23.90;63.60;;;;;;5029387;28;20447;-56
2023/09/19 11:36:14;;;;;;;17.25;4.00;;;23.90;63.50;;;;;;5015448;28;20512;-54
2023/09/19 11:38:49;;;;;;;59.60;5.65;;;23.90;63.40;;;;;;5015688;28;20021;-56
2023/09/19 11:41:21;;;;;;;18.50;4.43;;;23.90;64.00;;;;;;5029398;28;20021;-55
2023/09/19 11:43:47;;;;;;;15.57;3.90;;;23.90;63.50;;;;;;5029451;28;20037;-53
2023/09/19 11:46:16;;;;;;;14.95;4.28;;;23.90;63.60;;;;;;5024002;28;20091;-51
2023/09/19 11:48:44;;;;;;;19.08;4.45;;;23.90;63.60;;;;;;5014980;28;20021;-55
2023/09/19 11:51:39;;;;;;;17.80;4.43;;;23.90;63.80;;;;;;5029616;28;20050;-55
2023/09/19 11:54:21;;;;;;;14.43;4.15;;;23.90;63.80;;;;;;5016610;28;20207;-55
2023/09/19 11:56:53;;;;;;;22.98;3.92;;;23.80;63.90;;;;;;5015751;28;20471;-55
2023/09/19 11:59:24;;;;;;;13.63;4.38;;;23.80;63.80;;;;;;5021832;28;20034;-53
2023/09/19 12:02:14;;;;;;;23.85;4.75;;;23.80;63.80;;;;;;5030158;28;20485;-55
2023/09/19 12:04:45;;;;;;;20.50;4.35;;;23.80;63.90;;;;;;5031308;28;20065;-56
2023/09/19 12:07:16;;;;;;;44.05;5.88;;;23.80;64.00;;;;;;5012937;28;20080;-56
2023/09/19 12:10:02;;;;;;;25.50;5.47;;;23.80;64.10;;;;;;5003549;28;20568;-56
2023/09/19 12:12:28;;;;;;;30.80;5.28;;;23.90;64.00;;;;;;5010656;28;20030;-56
2023/09/19 12:14:55;;;;;;;25.83;5.07;;;23.90;63.70;;;;;;5009696;28;20029;-54
2023/09/19 12:17:24;;;;;;;26.50;5.60;;;23.80;63.70;;;;;;5008139;28;20042;-56
2023/09/19 12:19:51;;;;;;;22.85;4.80;;;23.80;63.60;;;;;;5022225;28;20033;-56
2023/09/19 12:22:19;;;;;;;35.15;5.00;;;23.80;63.60;;;;;;5021875;28;20056;-56
2023/09/19 12:24:45;;;;;;;17.08;4.97;;;23.70;63.50;;;;;;5001286;28;20485;-54
2023/09/19 12:27:11;;;;;;;23.73;5.97;;;23.70;63.40;;;;;;5008997;28;20061;-53
2023/09/19 12:29:50;;;;;;;23.08;5.22;;;23.70;63.60;;;;;;5020713;28;20029;-55
2023/09/19 12:32:22;;;;;;;25.33;5.88;;;23.70;63.50;;;;;;5010251;28;20517;-56
2023/09/19 12:34:52;;;;;;;20.95;4.85;;;23.70;63.40;;;;;;5010148;28;20045;-56
2023/09/19 12:37:22;;;;;;;20.20;4.65;;;23.70;63.40;;;;;;5009477;28;20034;-56
2023/09/19 12:39:52;;;;;;;20.85;5.20;;;23.70;63.40;;;;;;5015183;28;20034;-56
2023/09/19 12:42:21;;;;;;;20.17;4.97;;;23.70;63.30;;;;;;5014156;28;20062;-54
2023/09/19 12:44:48;;;;;;;15.82;5.07;;;23.70;63.30;;;;;;4992298;28;20037;-56
2023/09/19 12:47:17;;;;;;;16.83;4.43;;;23.70;63.40;;;;;;5008342;28;20030;-55
2023/09/19 12:50:13;;;;;;;16.80;4.43;;;23.70;63.40;;;;;;5009962;28;20021;-54
2023/09/19 12:52:40;;;;;;;19.85;4.93;;;23.70;63.40;;;;;;5009222;28;20033;-56
2023/09/19 12:55:07;;;;;;;14.70;5.00;;;23.70;63.50;;;;;;5007321;28;20044;-56
2023/09/19 12:57:36;;;;;;;10.23;3.70;;;23.70;63.40;;;;;;5007682;28;20041;-56
2023/09/19 13:00:05;;;;;;;14.18;4.20;;;23.70;63.40;;;;;;5008249;28;20325;-55
2023/09/19 13:02:32;;;;;;;14.80;5.05;;;23.70;63.30;;;;;;5012289;28;20042;-56
2023/09/19 13:05:04;;;;;;;12.13;4.25;;;23.70;63.30;;;;;;5011522;28;20514;-55
2023/09/19 13:07:47;;;;;;;16.00;4.25;;;23.70;63.80;;;;;;5009501;28;20029;-55
2023/09/19 13:10:16;;;;;;;17.52;4.65;;;23.60;63.20;;;;;;5006844;28;20022;-53
2023/09/19 13:12:46;;;;;;;11.50;4.18;;;23.60;63.20;;;;;;5015714;28;20420;-53